Date,TemperatureHighF,TemperatureAvgF,TemperatureLowF,DewpointHighF,DewpointAvgF,DewpointLowF,HumidityHigh,HumidityAvg,HumidityLow,PressureMaxIn,PressureMinIn,WindSpeedMaxMPH,WindSpeedAvgMPH,GustSpeedMaxMPH,PrecipitationSumIn
2013-2-1,6.0,1.4,-1.0,-2.0,-8.0,-10.0,69,65,62,0.00,40.00,11,9,20,0.00
2013-2-2,14.0,8.7,2.0,5.0,-0.4,-8.0,80,67,45,0.00,40.00,6,4,14,0.00
2013-2-3,19.0,12.2,2.0,6.0,2.1,-7.0,78,65,46,0.00,40.00,14,5,24,0.00
2013-2-4,19.0,14.9,11.0,10.0,6.9,-2.0,83,72,53,0.00,40.00,6,3,50,0.00
2013-2-5,27.0,20.4,3.0,20.0,12.7,-4.0,84,73,62,0.00,40.00,10,5,17,0.00
2013-2-6,33.0,21.7,3.0,24.0,11.8,-1.0,82,67,45,0.00,40.00,4,1,9,0.00
2013-2-7,34.0,32.2,24.0,31.0,28.5,21.0,91,86,75,0.00,40.00,9,3,19,0.00
2013-2-8,26.0,21.2,9.0,21.0,15.7,5.0,91,79,66,0.00,40.00,12,7,20,0.00
2013-2-9,29.0,21.1,4.0,22.0,15.3,0.0,86,79,67,0.00,40.00,11,3,17,0.00
2013-2-10,42.0,31.8,24.0,36.0,28.6,20.0,91,88,69,0.00,40.00,11,4,22,0.00
2013-2-11,42.0,32.0,27.0,32.0,22.1,17.0,73,67,60,0.00,40.00,21,14,47,0.00
2013-2-12,28.0,24.6,21.0,17.0,14.7,13.0,83,66,54,0.00,40.00,13,7,21,0.00
2013-2-13,40.0,29.2,18.0,26.0,20.7,15.0,89,72,49,0.00,40.00,8,4,13,0.00
2013-2-14,35.0,33.2,29.0,32.0,26.6,19.0,88,77,62,0.00,40.00,16,6,26,0.00
2013-2-15,29.0,21.4,15.0,22.0,7.3,1.0,81,56,37,0.00,40.00,10,7,21,0.00
2013-2-16,19.0,12.3,7.0,1.0,-2.0,-5.0,71,53,39,0.00,40.00,12,6,19,0.00
2013-2-17,27.0,15.8,2.0,7.0,-1.0,-6.0,77,51,27,0.00,40.00,7,2,14,0.00
2013-2-18,47.0,36.1,26.0,39.0,24.3,8.0,91,63,46,0.00,40.00,11,6,23,0.00
2013-2-19,31.0,15.6,8.0,28.0,6.8,-5.0,91,69,53,0.00,40.00,16,12,29,0.00
2013-2-20,21.0,12.6,6.0,7.0,-0.2,-6.0,67,57,46,0.00,40.00,11,6,21,0.00
2013-2-21,27.0,20.8,13.0,22.0,13.4,4.0,82,73,60,0.00,40.00,13,6,28,0.00
2013-2-22,34.0,28.2,24.0,27.0,23.1,18.0,91,82,69,0.00,40.00,12,6,24,0.00
2013-2-23,30.0,25.9,20.0,23.0,16.8,13.0,82,69,52,0.00,40.00,9,6,16,0.00
2013-2-24,39.0,26.6,18.0,18.0,15.6,12.0,85,65,40,0.00,40.00,7,3,17,0.00
2013-2-25,42.0,26.1,15.0,29.0,17.6,12.0,89,74,35,0.00,40.00,6,1,10,0.00
2013-2-26,34.0,32.3,29.0,30.0,25.9,21.0,91,78,60,0.00,40.00,12,9,30,0.00
2013-2-27,33.0,31.2,29.0,30.0,28.8,27.0,91,90,83,0.00,40.00,12,9,21,0.00
2013-2-28,34.0,31.0,25.0,28.0,22.8,15.0,84,72,59,0.00,40.00,12,9,21,0.00